createdAt,value
2018-10-16T00:01:33.555Z,10.33
2018-10-16T00:03:45.839Z,10.37
2018-10-16T00:05:58.083Z,10.40
2018-10-16T00:08:10.284Z,10.37
2018-10-16T00:10:28.324Z,10.31
2018-10-16T00:12:40.517Z,10.27
2018-10-16T00:14:52.708Z,10.24
2018-10-16T00:17:05.187Z,10.24
2018-10-16T00:19:17.406Z,10.22
2018-10-16T00:21:29.615Z,10.24
2018-10-16T00:23:41.801Z,10.23
2018-10-16T00:25:54.034Z,10.14
2018-10-16T00:28:06.707Z,10.04
2018-10-16T00:30:19.007Z,9.97
2018-10-16T00:32:31.277Z,9.92
2018-10-16T00:34:43.464Z,9.99
2018-10-16T00:36:55.709Z,10.02
2018-10-16T00:39:10.998Z,10.03
2018-10-16T00:41:23.251Z,10.00
2018-10-16T00:43:35.443Z,9.94
2018-10-16T00:45:47.653Z,10.01
2018-10-16T00:47:59.893Z,10.06
2018-10-16T00:50:12.087Z,10.05
2018-10-16T00:52:24.320Z,10.05
2018-10-16T00:54:36.515Z,10.11
2018-10-16T00:56:48.766Z,10.15
2018-10-16T00:59:01.041Z,10.14
2018-10-16T01:01:13.290Z,10.12
2018-10-16T01:03:25.539Z,10.07
2018-10-16T01:05:37.756Z,9.99
2018-10-16T01:07:50.014Z,9.93
2018-10-16T01:10:02.284Z,9.86
2018-10-16T01:12:14.474Z,9.79
2018-10-16T01:14:26.723Z,9.75
2018-10-16T01:16:38.931Z,9.71
2018-10-16T01:18:51.206Z,9.63
2018-10-16T01:21:03.458Z,9.60
2018-10-16T01:23:15.712Z,9.62
2018-10-16T01:25:27.947Z,9.66
2018-10-16T01:27:40.468Z,9.68
2018-10-16T01:29:52.880Z,9.67
2018-10-16T01:32:05.199Z,9.66
2018-10-16T01:34:17.441Z,9.65
2018-10-16T01:36:29.622Z,9.60
2018-10-16T01:38:41.818Z,9.58
2018-10-16T01:40:54.086Z,9.56
2018-10-16T01:43:06.323Z,9.56
2018-10-16T01:45:18.519Z,9.56
2018-10-16T01:47:30.735Z,9.57
2018-10-16T01:49:42.921Z,9.55
2018-10-16T01:51:55.128Z,9.48
2018-10-16T01:54:07.369Z,9.48
2018-10-16T01:56:19.593Z,9.43
2018-10-16T01:58:31.826Z,9.35
2018-10-16T02:00:44.008Z,9.35
2018-10-16T02:02:56.215Z,9.39
2018-10-16T02:05:08.447Z,9.42
2018-10-16T02:07:20.893Z,9.41
2018-10-16T02:09:33.081Z,9.40
2018-10-16T02:11:45.324Z,9.37
2018-10-16T02:13:57.523Z,9.32
2018-10-16T02:16:09.763Z,9.26
2018-10-16T02:18:22.003Z,9.20
2018-10-16T02:20:34.263Z,9.20
2018-10-16T02:22:46.508Z,9.20
2018-10-16T02:24:58.699Z,9.19
2018-10-16T02:27:10.940Z,9.17
2018-10-16T02:29:23.172Z,9.21
2018-10-16T02:31:35.424Z,9.23
2018-10-16T02:33:47.664Z,9.25
2018-10-16T02:35:59.901Z,9.30
2018-10-16T02:38:12.148Z,9.33
2018-10-16T02:40:24.392Z,9.37
2018-10-16T02:42:37.076Z,9.34
2018-10-16T02:44:49.288Z,9.34
2018-10-16T02:47:01.483Z,9.33
2018-10-16T02:49:14.007Z,9.25
2018-10-16T02:51:26.209Z,9.12
2018-10-16T02:53:38.667Z,9.08
2018-10-16T02:55:50.855Z,9.05
2018-10-16T02:58:03.115Z,9.05
2018-10-16T03:00:15.334Z,9.05
2018-10-16T03:02:27.551Z,9.04
2018-10-16T03:04:39.818Z,9.01
2018-10-16T03:06:52.038Z,9.02
2018-10-16T03:09:06.378Z,9.00
2018-10-16T03:11:18.568Z,8.95
2018-10-16T03:13:30.773Z,8.88
2018-10-16T03:15:42.980Z,8.85
2018-10-16T03:17:55.180Z,8.81
2018-10-16T03:20:08.211Z,8.78
2018-10-16T03:22:20.443Z,8.75
2018-10-16T03:24:32.632Z,8.73
2018-10-16T03:26:44.876Z,8.74
2018-10-16T03:28:57.065Z,8.81
2018-10-16T03:31:09.312Z,8.86
2018-10-16T03:33:21.517Z,8.89
2018-10-16T03:35:33.739Z,8.95
2018-10-16T03:37:45.943Z,8.97
2018-10-16T03:39:58.266Z,8.95
2018-10-16T03:42:10.562Z,8.87
2018-10-16T03:44:22.764Z,8.80
2018-10-16T03:46:35.003Z,8.74
2018-10-16T03:48:47.216Z,8.65
2018-10-16T03:50:59.455Z,8.56
2018-10-16T03:53:11.675Z,8.55
2018-10-16T03:55:23.871Z,8.53
2018-10-16T03:57:36.301Z,8.55
2018-10-16T03:59:48.475Z,8.53
2018-10-16T04:02:00.691Z,8.51
2018-10-16T04:04:12.883Z,8.56
2018-10-16T04:06:25.172Z,8.59
2018-10-16T04:08:37.425Z,8.66
2018-10-16T04:10:49.621Z,8.65
2018-10-16T04:13:01.875Z,8.66
2018-10-16T04:15:14.184Z,8.64
2018-10-16T04:17:26.403Z,8.63
2018-10-16T04:19:38.592Z,8.65
2018-10-16T04:21:50.815Z,8.66
2018-10-16T04:24:03.099Z,8.65
2018-10-16T04:26:15.364Z,8.66
2018-10-16T04:28:27.724Z,8.69
2018-10-16T04:30:40.011Z,8.70
2018-10-16T04:32:52.204Z,8.71
2018-10-16T04:35:10.495Z,8.74
2018-10-16T04:37:22.723Z,8.71
2018-10-16T04:39:34.971Z,8.64
2018-10-16T04:41:47.343Z,8.58
2018-10-16T04:43:59.475Z,8.55
2018-10-16T04:46:11.703Z,8.53
2018-10-16T04:48:23.946Z,8.59
2018-10-16T04:50:36.194Z,8.66
2018-10-16T04:52:48.449Z,8.71
2018-10-16T04:55:00.738Z,8.69
2018-10-16T04:57:12.932Z,8.67
2018-10-16T04:59:25.155Z,8.63
2018-10-16T05:01:37.395Z,8.63
2018-10-16T05:03:49.613Z,8.64
2018-10-16T05:06:01.910Z,8.61
2018-10-16T05:08:14.094Z,8.59
2018-10-16T05:10:26.325Z,8.53
2018-10-16T05:12:38.611Z,8.49
2018-10-16T05:14:50.841Z,8.48
2018-10-16T05:17:03.075Z,8.51
2018-10-16T05:19:15.526Z,8.53
2018-10-16T05:21:27.658Z,8.55
2018-10-16T05:23:39.855Z,8.60
2018-10-16T05:25:52.110Z,8.61
2018-10-16T05:28:04.389Z,8.63
2018-10-16T05:30:17.027Z,8.67
2018-10-16T05:32:29.215Z,8.68
2018-10-16T05:34:41.403Z,8.72
2018-10-16T05:36:53.606Z,8.73
2018-10-16T05:39:07.804Z,8.74
2018-10-16T05:41:19.972Z,8.75
2018-10-16T05:43:32.179Z,8.74
2018-10-16T05:45:45.439Z,8.79
2018-10-16T05:47:57.675Z,8.79
2018-10-16T05:50:10.448Z,8.78
2018-10-16T05:52:23.039Z,8.78
2018-10-16T05:54:35.294Z,8.82
2018-10-16T05:56:47.478Z,8.86
2018-10-16T05:58:59.702Z,8.87
2018-10-16T06:01:11.985Z,8.90
2018-10-16T06:03:24.323Z,8.96
2018-10-16T06:05:36.582Z,8.99
2018-10-16T06:07:48.745Z,9.04
2018-10-16T06:10:00.995Z,9.07
2018-10-16T06:12:13.267Z,9.09
2018-10-16T06:14:25.454Z,9.10
2018-10-16T06:16:37.636Z,9.07
2018-10-16T06:18:49.873Z,9.05
2018-10-16T06:21:02.051Z,8.99
2018-10-16T06:23:14.298Z,8.96
2018-10-16T06:25:26.522Z,8.94
2018-10-16T06:27:39.912Z,8.91
2018-10-16T06:29:52.159Z,8.93
2018-10-16T06:32:04.665Z,8.99
2018-10-16T06:34:16.911Z,9.05
2018-10-16T06:36:29.224Z,9.11
2018-10-16T06:38:41.495Z,9.19
2018-10-16T06:40:54.007Z,9.27
2018-10-16T06:43:05.959Z,9.30
2018-10-16T06:45:18.260Z,9.33
2018-10-16T06:47:30.641Z,9.33
2018-10-16T06:49:42.759Z,9.38
2018-10-16T06:51:54.999Z,9.43
2018-10-16T06:54:07.216Z,9.50
2018-10-16T06:56:19.452Z,9.58
2018-10-16T06:58:31.671Z,9.68
2018-10-16T07:00:43.883Z,9.76
2018-10-16T07:02:56.076Z,9.91
2018-10-16T07:05:08.380Z,10.24
2018-10-16T07:07:20.727Z,10.78
2018-10-16T07:09:32.844Z,11.36
2018-10-16T07:11:45.146Z,11.88
2018-10-16T07:13:57.336Z,12.41
2018-10-16T07:16:09.564Z,12.87
2018-10-16T07:18:21.783Z,13.29
2018-10-16T07:20:33.990Z,13.71
2018-10-16T07:22:46.264Z,14.05
2018-10-16T07:24:58.450Z,14.47
2018-10-16T07:27:10.656Z,14.81
2018-10-16T07:29:22.924Z,15.25
2018-10-16T07:31:35.324Z,15.65
2018-10-16T07:33:47.562Z,16.00
2018-10-16T07:35:59.744Z,16.21
2018-10-16T07:38:12.182Z,16.43
2018-10-16T07:40:24.299Z,16.64
2018-10-16T07:42:36.519Z,16.86
2018-10-16T07:44:48.715Z,17.09
2018-10-16T07:47:00.983Z,17.33
2018-10-16T07:49:13.228Z,17.63
2018-10-16T07:51:25.444Z,17.83
2018-10-16T07:53:37.658Z,17.98
2018-10-16T07:55:49.839Z,18.06
2018-10-16T07:58:02.575Z,18.24
2018-10-16T08:00:14.811Z,18.42
2018-10-16T08:02:27.072Z,18.59
2018-10-16T08:04:39.287Z,18.72
2018-10-16T08:06:51.504Z,18.89
2018-10-16T08:09:07.660Z,19.07
2018-10-16T08:11:19.950Z,19.17
2018-10-16T08:13:32.120Z,19.16
2018-10-16T08:15:44.378Z,19.22
2018-10-16T08:17:56.586Z,19.25
2018-10-16T08:20:08.853Z,19.26
2018-10-16T08:22:21.050Z,19.28
2018-10-16T08:24:33.342Z,19.28
2018-10-16T08:26:45.641Z,19.25
2018-10-16T08:28:57.876Z,19.28
2018-10-16T08:31:13.311Z,19.38
2018-10-16T08:33:25.502Z,19.43
2018-10-16T08:35:37.731Z,19.46
2018-10-16T08:40:02.932Z,19.52
2018-10-16T08:43:35.648Z,19.67
2018-10-16T08:45:59.412Z,19.89
2018-10-16T08:48:22.989Z,20.04
2018-10-16T08:50:47.709Z,20.20
2018-10-16T08:53:00.024Z,20.33
2018-10-16T08:55:12.306Z,20.34
2018-10-16T08:57:24.479Z,20.36
2018-10-16T08:59:36.699Z,20.45
2018-10-16T09:01:48.975Z,20.49
2018-10-16T09:04:02.011Z,20.46
2018-10-16T09:06:14.236Z,20.46
2018-10-16T09:08:26.476Z,20.56
2018-10-16T09:10:38.671Z,20.66
2018-10-16T09:12:51.323Z,20.68
2018-10-16T09:15:03.868Z,20.67
2018-10-16T09:17:16.095Z,20.71
2018-10-16T09:19:28.341Z,20.80
2018-10-16T09:21:40.632Z,20.85
2018-10-16T09:23:52.827Z,20.89
2018-10-16T09:26:05.210Z,21.02
2018-10-16T09:28:17.471Z,21.08
2018-10-16T09:30:29.670Z,21.16
2018-10-16T09:32:41.903Z,21.24
2018-10-16T09:34:54.169Z,21.28
2018-10-16T09:37:06.343Z,21.32
2018-10-16T09:39:18.563Z,21.32
2018-10-16T09:41:30.778Z,21.37
2018-10-16T09:43:43.002Z,21.48
2018-10-16T09:45:55.182Z,21.49
2018-10-16T09:48:07.421Z,21.50
2018-10-16T09:50:19.652Z,21.53
2018-10-16T09:52:31.832Z,21.50
2018-10-16T09:54:44.056Z,21.52
2018-10-16T09:56:56.249Z,21.54
2018-10-16T09:59:08.472Z,21.59
2018-10-16T10:01:26.323Z,21.67
2018-10-16T10:03:38.557Z,21.66
2018-10-16T10:05:50.839Z,21.60
2018-10-16T10:08:03.087Z,21.65
2018-10-16T10:10:15.320Z,21.73
2018-10-16T10:12:27.563Z,21.74
2018-10-16T10:14:39.800Z,21.71
2018-10-16T10:16:52.020Z,21.76
2018-10-16T10:19:04.381Z,21.81
2018-10-16T10:21:16.625Z,21.85
2018-10-16T10:23:28.891Z,21.87
2018-10-16T10:25:41.056Z,21.85
2018-10-16T10:27:53.280Z,21.78
2018-10-16T10:30:08.323Z,21.80
2018-10-16T10:32:20.506Z,21.87
2018-10-16T10:34:32.667Z,21.94
2018-10-16T10:36:44.915Z,22.03
2018-10-16T10:38:57.090Z,22.04
2018-10-16T10:41:09.364Z,22.10
2018-10-16T10:43:21.568Z,22.18
2018-10-16T10:45:33.795Z,22.28
2018-10-16T10:47:46.038Z,22.27
2018-10-16T10:49:58.326Z,22.25
2018-10-16T10:52:10.504Z,22.29
2018-10-16T10:54:22.816Z,22.25
2018-10-16T10:56:35.128Z,22.28
2018-10-16T10:58:47.364Z,22.34
2018-10-16T11:00:59.613Z,22.30
2018-10-16T11:03:11.883Z,22.32
2018-10-16T11:05:24.021Z,22.37
2018-10-16T11:07:36.295Z,22.42
2018-10-16T11:09:49.364Z,22.46
2018-10-16T11:12:01.572Z,22.46
2018-10-16T11:14:13.775Z,22.52
2018-10-16T11:16:26.002Z,22.52
2018-10-16T11:18:38.364Z,22.49
2018-10-16T11:20:50.599Z,22.49
2018-10-16T11:23:02.835Z,22.45
2018-10-16T11:25:15.096Z,22.47
2018-10-16T11:27:27.356Z,22.48
2018-10-16T11:29:39.565Z,22.44
2018-10-16T11:31:51.813Z,22.48
2018-10-16T11:34:04.587Z,22.51
2018-10-16T11:36:16.812Z,22.46
2018-10-16T11:38:30.040Z,22.50
2018-10-16T11:40:42.315Z,22.57
2018-10-16T11:42:54.495Z,22.61
2018-10-16T11:45:07.116Z,22.65
2018-10-16T11:47:19.240Z,22.64
2018-10-16T11:49:31.451Z,22.64
2018-10-16T11:51:43.622Z,22.63
2018-10-16T11:53:55.915Z,22.61
2018-10-16T11:56:08.240Z,22.63
2018-10-16T11:58:24.377Z,22.60
2018-10-16T12:00:36.617Z,22.62
2018-10-16T12:02:48.887Z,22.63
2018-10-16T12:05:01.098Z,22.63
2018-10-16T12:07:14.340Z,22.63
2018-10-16T12:09:26.500Z,22.60
2018-10-16T12:11:39.450Z,22.61
2018-10-16T12:13:51.723Z,22.52
2018-10-16T12:16:03.988Z,22.50
2018-10-16T12:18:25.546Z,22.50
2018-10-16T12:20:51.827Z,22.47
2018-10-16T12:23:04.160Z,22.49
2018-10-16T12:25:16.437Z,22.54
2018-10-16T12:27:28.646Z,22.53
2018-10-16T12:29:40.919Z,22.51
2018-10-16T12:31:53.216Z,22.49
2018-10-16T12:34:05.459Z,22.45
2018-10-16T12:36:17.680Z,22.50
2018-10-16T12:38:30.013Z,22.48
2018-10-16T12:40:45.369Z,22.47
2018-10-16T12:43:00.747Z,22.43
2018-10-16T12:45:13.096Z,22.42
2018-10-16T12:47:25.287Z,22.44
2018-10-16T12:49:37.560Z,22.46
2018-10-16T12:51:50.651Z,22.47
2018-10-16T12:54:02.976Z,22.47
2018-10-16T12:56:18.132Z,22.46
2018-10-16T12:58:30.279Z,22.46
2018-10-16T13:00:42.631Z,22.47
2018-10-16T13:02:54.872Z,22.47
2018-10-16T13:05:07.259Z,22.49
2018-10-16T13:07:39.012Z,22.50
2018-10-16T13:09:53.034Z,22.45
2018-10-16T13:12:05.325Z,22.48
2018-10-16T13:14:18.468Z,22.45
2018-10-16T13:16:33.611Z,22.43
2018-10-16T13:18:45.914Z,22.43
2018-10-16T13:20:58.204Z,22.42
2018-10-16T13:23:10.534Z,22.43
2018-10-16T13:25:22.776Z,22.41
2018-10-16T13:27:35.311Z,22.44
2018-10-16T13:29:47.577Z,22.45
2018-10-16T13:31:59.869Z,22.41
2018-10-16T13:34:13.068Z,22.42
2018-10-16T13:36:25.216Z,22.35
2018-10-16T13:38:37.410Z,22.35
2018-10-16T13:40:49.686Z,22.36
2018-10-16T13:43:01.976Z,22.37
2018-10-16T13:45:15.357Z,22.38
2018-10-16T13:47:27.591Z,22.34
2018-10-16T13:49:39.821Z,22.28
2018-10-16T13:51:55.110Z,22.23
2018-10-16T13:54:07.344Z,22.21
2018-10-16T13:56:19.616Z,22.19
2018-10-16T13:58:32.874Z,22.23
2018-10-16T14:00:45.119Z,22.23
2018-10-16T14:03:04.347Z,22.24
2018-10-16T14:05:16.626Z,22.21
2018-10-16T14:07:28.882Z,22.20
2018-10-16T14:09:41.502Z,22.23
2018-10-16T14:11:53.748Z,22.17
2018-10-16T14:14:06.060Z,22.12
2018-10-16T14:16:18.313Z,22.09
2018-10-16T14:18:31.487Z,22.08
2018-10-16T14:20:43.700Z,22.08
2018-10-16T14:22:55.948Z,22.06
2018-10-16T14:25:09.364Z,22.02
2018-10-16T14:27:21.607Z,22.01
2018-10-16T14:29:34.699Z,21.99
2018-10-16T14:31:46.930Z,21.96
2018-10-16T14:33:59.318Z,21.97
2018-10-16T14:36:11.539Z,21.99
2018-10-16T14:38:23.796Z,22.00
2018-10-16T14:40:36.158Z,21.99
2018-10-16T14:42:50.296Z,22.03
2018-10-16T14:45:02.605Z,22.04
2018-10-16T14:47:14.819Z,22.00
2018-10-16T14:49:27.158Z,22.02
2018-10-16T14:51:39.388Z,22.01
2018-10-16T14:53:51.690Z,21.93
2018-10-16T14:56:07.921Z,21.90
2018-10-16T14:58:22.036Z,21.84
2018-10-16T15:00:34.354Z,21.77
2018-10-16T15:02:46.629Z,21.70
2018-10-16T15:04:59.825Z,21.69
2018-10-16T15:07:12.047Z,21.64
2018-10-16T15:09:24.291Z,21.64
2018-10-16T15:11:36.525Z,21.66
2018-10-16T15:13:48.748Z,21.64
2018-10-16T15:16:01.030Z,21.60
2018-10-16T15:18:13.259Z,21.57
2018-10-16T15:20:25.609Z,21.59
2018-10-16T15:22:38.097Z,21.60
2018-10-16T15:24:50.285Z,21.61
2018-10-16T15:27:02.520Z,21.59
2018-10-16T15:29:14.774Z,21.59
2018-10-16T15:31:27.037Z,21.58
2018-10-16T15:33:39.271Z,21.54
2018-10-16T15:35:51.554Z,21.49
2018-10-16T15:38:03.825Z,21.47
2018-10-16T15:40:16.112Z,21.44
2018-10-16T15:42:28.361Z,21.40
2018-10-16T15:44:40.605Z,21.33
2018-10-16T15:46:52.831Z,21.33
2018-10-16T15:49:05.328Z,21.31
2018-10-16T15:51:17.502Z,21.29
2018-10-16T15:53:29.810Z,21.24
2018-10-16T15:55:42.118Z,21.14
2018-10-16T15:57:54.478Z,21.00
2018-10-16T16:00:15.457Z,20.88
2018-10-16T16:02:27.871Z,20.75
2018-10-16T16:04:40.091Z,20.61
2018-10-16T16:06:52.436Z,20.46
2018-10-16T16:09:05.995Z,20.38
2018-10-16T16:11:18.250Z,20.32
2018-10-16T16:13:30.508Z,20.23
2018-10-16T16:15:42.805Z,20.14
2018-10-16T16:17:55.045Z,20.04
2018-10-16T16:20:09.053Z,19.89
2018-10-16T16:22:21.206Z,19.79
2018-10-16T16:24:33.473Z,19.71
2018-10-16T16:26:45.734Z,19.60
2018-10-16T16:28:57.936Z,19.46
2018-10-16T16:31:10.192Z,19.38
2018-10-16T16:33:22.520Z,19.26
2018-10-16T16:35:34.809Z,19.19
2018-10-16T16:37:47.110Z,19.10
2018-10-16T16:39:59.464Z,19.04
2018-10-16T16:42:11.784Z,19.03
2018-10-16T16:44:24.000Z,18.99
2018-10-16T16:46:36.285Z,18.94
2018-10-16T16:48:48.508Z,18.89
2018-10-16T16:51:00.899Z,18.81
2018-10-16T16:53:13.165Z,18.73
2018-10-16T16:55:25.334Z,18.65
2018-10-16T16:57:37.663Z,18.55
2018-10-16T16:59:49.935Z,18.49
2018-10-16T17:02:02.331Z,18.40
2018-10-16T17:04:14.563Z,18.33
2018-10-16T17:06:26.866Z,18.28
2018-10-16T17:08:39.107Z,18.21
2018-10-16T17:10:51.378Z,18.13
2018-10-16T17:13:03.752Z,18.02
2018-10-16T17:15:16.300Z,17.87
2018-10-16T17:17:28.600Z,17.77
2018-10-16T17:19:40.886Z,17.64
2018-10-16T17:21:53.166Z,17.55
2018-10-16T17:24:05.696Z,17.42
2018-10-16T17:26:18.835Z,17.37
2018-10-16T17:28:30.732Z,17.34
2018-10-16T17:30:43.019Z,17.28
2018-10-16T17:32:55.342Z,17.23
2018-10-16T17:35:08.853Z,17.18
2018-10-16T17:37:21.140Z,17.14
2018-10-16T17:39:33.440Z,17.08
2018-10-16T17:41:45.747Z,17.01
2018-10-16T17:43:58.052Z,16.94
2018-10-16T17:46:10.387Z,16.89
2018-10-16T17:48:22.564Z,16.85
2018-10-16T17:50:34.797Z,16.68
2018-10-16T17:52:47.073Z,16.49
2018-10-16T17:54:59.356Z,16.38
2018-10-16T17:57:11.691Z,16.34
2018-10-16T17:59:23.907Z,16.35
2018-10-16T18:01:36.167Z,16.30
2018-10-16T18:03:48.508Z,16.24
2018-10-16T18:06:00.768Z,16.19
2018-10-16T18:08:13.007Z,16.19
2018-10-16T18:10:25.389Z,16.15
2018-10-16T18:12:37.952Z,16.10
2018-10-16T18:14:50.518Z,16.08
2018-10-16T18:17:02.805Z,16.01
2018-10-16T18:19:15.046Z,15.94
2018-10-16T18:21:27.337Z,15.84
2018-10-16T18:23:39.558Z,15.75
2018-10-16T18:25:51.866Z,15.72
2018-10-16T18:28:05.072Z,15.67
2018-10-16T18:30:17.325Z,15.64
2018-10-16T18:32:29.644Z,15.61
2018-10-16T18:34:41.915Z,15.57
2018-10-16T18:36:54.201Z,15.53
2018-10-16T18:39:07.535Z,15.48
2018-10-16T18:41:19.832Z,15.38
2018-10-16T18:43:32.111Z,15.27
2018-10-16T18:45:44.447Z,15.23
2018-10-16T18:47:56.732Z,15.17
2018-10-16T18:50:10.491Z,15.05
2018-10-16T18:52:22.754Z,15.00
2018-10-16T18:54:35.016Z,14.93
2018-10-16T18:56:47.298Z,14.83
2018-10-16T18:58:59.616Z,14.81
2018-10-16T19:01:11.995Z,14.77
2018-10-16T19:03:24.246Z,14.69
2018-10-16T19:05:36.557Z,14.65
2018-10-16T19:07:48.916Z,14.59
2018-10-16T19:10:01.348Z,14.57
2018-10-16T19:12:13.712Z,14.53
2018-10-16T19:14:26.625Z,14.51
2018-10-16T19:16:39.411Z,14.49
2018-10-16T19:18:51.727Z,14.49
2018-10-16T19:21:04.864Z,14.48
2018-10-16T19:23:17.189Z,14.47
2018-10-16T19:25:29.591Z,14.49
2018-10-16T19:27:41.944Z,14.51
2018-10-16T19:29:54.147Z,14.50
2018-10-16T19:32:06.466Z,14.46
2018-10-16T19:34:18.758Z,14.40
2018-10-16T19:36:31.008Z,14.28
2018-10-16T19:38:43.280Z,14.20
2018-10-16T19:40:55.585Z,14.10
2018-10-16T19:43:07.855Z,14.05
2018-10-16T19:45:20.263Z,14.02
2018-10-16T19:47:32.481Z,13.97
2018-10-16T19:49:44.783Z,13.89
2018-10-16T19:51:57.063Z,13.79
2018-10-16T19:54:09.375Z,13.67
2018-10-16T19:56:21.615Z,13.54
2018-10-16T19:58:33.940Z,13.43
2018-10-16T20:00:46.203Z,13.37
2018-10-16T20:02:58.523Z,13.35
2018-10-16T20:05:10.795Z,13.30
2018-10-16T20:07:23.006Z,13.27
2018-10-16T20:09:35.661Z,13.24
2018-10-16T20:11:47.949Z,13.22
2018-10-16T20:14:00.190Z,13.26
2018-10-16T20:16:12.492Z,13.27
2018-10-16T20:18:24.715Z,13.28
2018-10-16T20:20:37.003Z,13.33
2018-10-16T20:22:49.207Z,13.34
2018-10-16T20:25:01.517Z,13.31
2018-10-16T20:27:13.822Z,13.27
2018-10-16T20:29:26.103Z,13.15
2018-10-16T20:31:38.398Z,13.05
2018-10-16T20:33:50.904Z,12.94
2018-10-16T20:36:03.308Z,12.95
2018-10-16T20:38:15.534Z,12.94
2018-10-16T20:40:27.819Z,12.91
2018-10-16T20:42:40.090Z,12.86
2018-10-16T20:44:52.324Z,12.84
2018-10-16T20:47:04.622Z,12.79
2018-10-16T20:49:16.888Z,12.75
2018-10-16T20:51:29.155Z,12.68
2018-10-16T20:53:41.425Z,12.54
2018-10-16T20:55:53.654Z,12.52
2018-10-16T20:58:05.940Z,12.47
2018-10-16T21:00:18.203Z,12.47
2018-10-16T21:02:30.391Z,12.53
2018-10-16T21:04:42.707Z,12.62
2018-10-16T21:06:54.990Z,12.69
2018-10-16T21:09:07.542Z,12.65
2018-10-16T21:11:19.819Z,12.72
2018-10-16T21:13:32.056Z,12.77
2018-10-16T21:15:44.291Z,12.84
2018-10-16T21:17:56.514Z,12.89
2018-10-16T21:20:09.345Z,12.84
2018-10-16T21:22:21.611Z,12.74
2018-10-16T21:24:33.999Z,12.68
2018-10-16T21:27:00.361Z,12.63
2018-10-16T21:29:12.738Z,12.66
2018-10-16T21:31:24.839Z,12.68
2018-10-16T21:33:37.104Z,12.70
2018-10-16T21:35:49.367Z,12.70
2018-10-16T21:38:01.667Z,12.69
2018-10-16T21:40:13.907Z,12.69
2018-10-16T21:42:26.119Z,12.60
2018-10-16T21:44:38.344Z,12.65
2018-10-16T21:46:51.295Z,12.67
2018-10-16T21:49:03.595Z,12.69
2018-10-16T21:51:15.814Z,12.70
2018-10-16T21:53:28.015Z,12.74
2018-10-16T21:55:40.254Z,12.77
2018-10-16T21:57:52.495Z,12.80
2018-10-16T22:00:06.980Z,12.81
2018-10-16T22:02:24.918Z,12.83
2018-10-16T22:04:39.128Z,12.83
2018-10-16T22:06:51.363Z,12.77
2018-10-16T22:09:06.107Z,12.76
2018-10-16T22:11:18.401Z,12.72
2018-10-16T22:13:30.610Z,12.74
2018-10-16T22:15:42.863Z,12.76
2018-10-16T22:17:55.104Z,12.79
2018-10-16T22:20:07.370Z,12.74
2018-10-16T22:22:19.609Z,12.59
2018-10-16T22:24:31.831Z,12.44
2018-10-16T22:26:44.109Z,12.34
2018-10-16T22:28:56.424Z,12.29
2018-10-16T22:31:08.654Z,12.18
2018-10-16T22:33:20.857Z,12.09
2018-10-16T22:35:33.116Z,12.10
2018-10-16T22:37:45.331Z,12.07
2018-10-16T22:39:57.550Z,12.14
2018-10-16T22:42:09.810Z,12.24
2018-10-16T22:44:22.030Z,12.21
2018-10-16T22:46:34.558Z,12.29
2018-10-16T22:48:46.806Z,12.31
2018-10-16T22:50:59.005Z,12.19
2018-10-16T22:53:11.265Z,12.08
2018-10-16T22:55:23.415Z,12.03
2018-10-16T22:57:35.837Z,12.04
2018-10-16T22:59:48.060Z,12.06
2018-10-16T23:02:00.297Z,12.10
2018-10-16T23:04:12.514Z,12.03
2018-10-16T23:06:24.714Z,11.91
2018-10-16T23:08:36.959Z,11.84
2018-10-16T23:10:49.162Z,11.85
2018-10-16T23:13:05.698Z,11.87
2018-10-16T23:15:17.904Z,11.80
2018-10-16T23:17:30.171Z,11.79
2018-10-16T23:19:42.374Z,11.78
2018-10-16T23:21:54.603Z,11.79
2018-10-16T23:24:06.821Z,11.75
2018-10-16T23:26:19.043Z,11.74
2018-10-16T23:28:31.271Z,11.79
2018-10-16T23:30:43.504Z,11.82
2018-10-16T23:32:55.666Z,11.78
2018-10-16T23:35:07.976Z,11.72
2018-10-16T23:37:20.143Z,11.70
2018-10-16T23:39:32.373Z,11.69
2018-10-16T23:41:44.587Z,11.71
2018-10-16T23:43:56.791Z,11.70
2018-10-16T23:46:09.170Z,11.70
2018-10-16T23:48:21.429Z,11.70
2018-10-16T23:50:33.611Z,11.67
2018-10-16T23:52:45.787Z,11.62
2018-10-16T23:54:58.046Z,11.57
2018-10-16T23:57:10.231Z,11.52
2018-10-16T23:59:22.415Z,11.46
